sensor_id;sensor_type;location;lat;lon;timestamp;P1;durP1;ratioP1;P2;durP2;ratioP2
33403;SDS011;19751;40.274;18.268;2024-03-23T00:53:14;13.75;;;10.52;;
33403;SDS011;19751;40.274;18.268;2024-03-23T00:55:43;15.27;;;10.18;;
33403;SDS011;19751;40.274;18.268;2024-03-23T00:58:09;15.90;;;9.90;;
33403;SDS011;19751;40.274;18.268;2024-03-23T01:00:34;15.70;;;10.40;;
33403;SDS011;19751;40.274;18.268;2024-03-23T01:03:00;15.10;;;9.85;;
33403;SDS011;19751;40.274;18.268;2024-03-23T01:05:25;16.95;;;10.20;;
33403;SDS011;19751;40.274;18.268;2024-03-23T01:07:51;13.63;;;9.82;;
33403;SDS011;19751;40.274;18.268;2024-03-23T01:10:16;13.32;;;10.30;;
33403;SDS011;19751;40.274;18.268;2024-03-23T01:12:42;19.52;;;10.00;;
33403;SDS011;19751;40.274;18.268;2024-03-23T01:15:07;15.25;;;10.40;;
33403;SDS011;19751;40.274;18.268;2024-03-23T01:17:33;17.98;;;10.82;;
33403;SDS011;19751;40.274;18.268;2024-03-23T01:19:59;16.98;;;10.35;;
33403;SDS011;19751;40.274;18.268;2024-03-23T01:22:24;19.10;;;10.23;;
33403;SDS011;19751;40.274;18.268;2024-03-23T01:24:49;15.27;;;10.43;;
33403;SDS011;19751;40.274;18.268;2024-03-23T01:27:15;17.45;;;10.27;;
33403;SDS011;19751;40.274;18.268;2024-03-23T01:29:40;20.58;;;10.38;;
33403;SDS011;19751;40.274;18.268;2024-03-23T01:32:06;14.38;;;9.43;;
33403;SDS011;19751;40.274;18.268;2024-03-23T01:34:32;16.95;;;10.13;;
33403;SDS011;19751;40.274;18.268;2024-03-23T01:36:57;16.63;;;10.23;;
33403;SDS011;19751;40.274;18.268;2024-03-23T01:39:23;14.88;;;10.68;;
33403;SDS011;19751;40.274;18.268;2024-03-23T01:41:49;14.18;;;9.55;;
33403;SDS011;19751;40.274;18.268;2024-03-23T01:44:15;14.98;;;10.63;;
33403;SDS011;19751;40.274;18.268;2024-03-23T01:46:41;16.35;;;10.70;;
33403;SDS011;19751;40.274;18.268;2024-03-23T01:49:07;19.80;;;10.88;;
33403;SDS011;19751;40.274;18.268;2024-03-23T01:51:33;15.20;;;11.27;;
33403;SDS011;19751;40.274;18.268;2024-03-23T01:53:59;22.55;;;11.57;;
33403;SDS011;19751;40.274;18.268;2024-03-23T01:56:28;17.92;;;10.90;;
33403;SDS011;19751;40.274;18.268;2024-03-23T01:58:58;21.27;;;11.48;;
33403;SDS011;19751;40.274;18.268;2024-03-23T02:01:24;21.52;;;12.05;;
33403;SDS011;19751;40.274;18.268;2024-03-23T02:03:50;17.42;;;11.70;;
33403;SDS011;19751;40.274;18.268;2024-03-23T02:06:15;21.98;;;12.32;;
33403;SDS011;19751;40.274;18.268;2024-03-23T02:08:41;18.48;;;10.70;;
33403;SDS011;19751;40.274;18.268;2024-03-23T02:11:06;25.00;;;13.68;;
33403;SDS011;19751;40.274;18.268;2024-03-23T02:13:32;22.55;;;12.23;;
33403;SDS011;19751;40.274;18.268;2024-03-23T02:15:57;19.77;;;11.90;;
33403;SDS011;19751;40.274;18.268;2024-03-23T02:18:23;22.13;;;12.32;;
33403;SDS011;19751;40.274;18.268;2024-03-23T02:20:48;26.73;;;13.82;;
33403;SDS011;19751;40.274;18.268;2024-03-23T02:23:17;34.10;;;15.50;;
33403;SDS011;19751;40.274;18.268;2024-03-23T02:25:45;27.77;;;14.75;;
33403;SDS011;19751;40.274;18.268;2024-03-23T02:28:11;26.45;;;13.27;;
33403;SDS011;19751;40.274;18.268;2024-03-23T02:30:37;21.60;;;13.25;;
33403;SDS011;19751;40.274;18.268;2024-03-23T02:33:03;25.13;;;14.25;;
33403;SDS011;19751;40.274;18.268;2024-03-23T02:35:29;21.17;;;13.50;;
33403;SDS011;19751;40.274;18.268;2024-03-23T02:37:54;19.77;;;12.45;;
33403;SDS011;19751;40.274;18.268;2024-03-23T02:40:22;17.25;;;11.05;;
33403;SDS011;19751;40.274;18.268;2024-03-23T02:42:48;22.33;;;11.80;;
33403;SDS011;19751;40.274;18.268;2024-03-23T02:45:13;21.00;;;11.77;;
33403;SDS011;19751;40.274;18.268;2024-03-23T02:47:39;25.00;;;11.63;;
33403;SDS011;19751;40.274;18.268;2024-03-23T02:50:05;22.25;;;12.48;;
33403;SDS011;19751;40.274;18.268;2024-03-23T02:52:31;17.70;;;11.27;;
33403;SDS011;19751;40.274;18.268;2024-03-23T02:54:56;18.38;;;11.15;;
33403;SDS011;19751;40.274;18.268;2024-03-23T02:57:22;15.38;;;10.70;;
33403;SDS011;19751;40.274;18.268;2024-03-23T02:59:48;12.25;;;9.32;;
33403;SDS011;19751;40.274;18.268;2024-03-23T03:02:14;13.27;;;8.48;;
33403;SDS011;19751;40.274;18.268;2024-03-23T03:04:40;18.05;;;10.35;;
33403;SDS011;19751;40.274;18.268;2024-03-23T03:07:06;14.93;;;9.27;;
33403;SDS011;19751;40.274;18.268;2024-03-23T03:09:31;15.10;;;8.88;;
33403;SDS011;19751;40.274;18.268;2024-03-23T03:11:58;15.52;;;9.43;;
33403;SDS011;19751;40.274;18.268;2024-03-23T03:14:23;15.38;;;8.98;;
33403;SDS011;19751;40.274;18.268;2024-03-23T03:16:48;15.00;;;9.93;;
33403;SDS011;19751;40.274;18.268;2024-03-23T03:19:14;13.52;;;9.40;;
33403;SDS011;19751;40.274;18.268;2024-03-23T03:21:41;14.75;;;10.15;;
33403;SDS011;19751;40.274;18.268;2024-03-23T03:24:07;13.27;;;10.00;;
33403;SDS011;19751;40.274;18.268;2024-03-23T03:26:32;15.75;;;9.10;;
33403;SDS011;19751;40.274;18.268;2024-03-23T03:28:58;13.32;;;9.18;;
33403;SDS011;19751;40.274;18.268;2024-03-23T03:31:23;14.55;;;9.55;;
33403;SDS011;19751;40.274;18.268;2024-03-23T03:33:49;14.73;;;9.43;;
33403;SDS011;19751;40.274;18.268;2024-03-23T03:36:16;14.75;;;9.80;;
33403;SDS011;19751;40.274;18.268;2024-03-23T03:38:41;15.68;;;8.88;;
33403;SDS011;19751;40.274;18.268;2024-03-23T03:41:07;14.02;;;9.30;;
33403;SDS011;19751;40.274;18.268;2024-03-23T03:43:32;13.80;;;9.15;;
33403;SDS011;19751;40.274;18.268;2024-03-23T03:45:58;12.73;;;8.05;;
33403;SDS011;19751;40.274;18.268;2024-03-23T03:48:25;12.15;;;8.32;;
33403;SDS011;19751;40.274;18.268;2024-03-23T03:50:51;9.18;;;7.68;;
33403;SDS011;19751;40.274;18.268;2024-03-23T03:53:17;12.02;;;7.85;;
33403;SDS011;19751;40.274;18.268;2024-03-23T03:55:43;12.30;;;8.95;;
33403;SDS011;19751;40.274;18.268;2024-03-23T03:58:08;13.05;;;7.50;;
33403;SDS011;19751;40.274;18.268;2024-03-23T04:00:33;14.65;;;8.80;;
33403;SDS011;19751;40.274;18.268;2024-03-23T04:02:59;12.00;;;8.02;;
33403;SDS011;19751;40.274;18.268;2024-03-23T04:05:24;11.27;;;7.95;;
33403;SDS011;19751;40.274;18.268;2024-03-23T04:07:50;13.60;;;8.10;;
33403;SDS011;19751;40.274;18.268;2024-03-23T04:10:15;12.27;;;8.30;;
33403;SDS011;19751;40.274;18.268;2024-03-23T04:12:41;10.63;;;7.65;;
33403;SDS011;19751;40.274;18.268;2024-03-23T04:15:08;11.07;;;8.00;;
33403;SDS011;19751;40.274;18.268;2024-03-23T04:17:33;13.90;;;8.65;;
33403;SDS011;19751;40.274;18.268;2024-03-23T04:19:59;11.57;;;7.70;;
33403;SDS011;19751;40.274;18.268;2024-03-23T04:22:26;13.85;;;7.00;;
33403;SDS011;19751;40.274;18.268;2024-03-23T04:24:53;14.68;;;7.72;;
33403;SDS011;19751;40.274;18.268;2024-03-23T04:27:19;16.58;;;8.82;;
33403;SDS011;19751;40.274;18.268;2024-03-23T04:29:51;11.60;;;7.50;;
33403;SDS011;19751;40.274;18.268;2024-03-23T04:32:18;13.32;;;8.00;;
33403;SDS011;19751;40.274;18.268;2024-03-23T04:34:43;14.50;;;8.93;;
33403;SDS011;19751;40.274;18.268;2024-03-23T04:37:09;15.10;;;8.18;;
33403;SDS011;19751;40.274;18.268;2024-03-23T04:39:38;13.90;;;8.95;;
33403;SDS011;19751;40.274;18.268;2024-03-23T04:42:03;14.80;;;8.32;;
33403;SDS011;19751;40.274;18.268;2024-03-23T04:44:29;14.90;;;9.20;;
33403;SDS011;19751;40.274;18.268;2024-03-23T04:46:56;16.88;;;9.65;;
33403;SDS011;19751;40.274;18.268;2024-03-23T04:49:22;19.08;;;9.73;;
33403;SDS011;19751;40.274;18.268;2024-03-23T04:51:47;16.23;;;9.25;;
33403;SDS011;19751;40.274;18.268;2024-03-23T04:54:13;14.70;;;7.65;;
33403;SDS011;19751;40.274;18.268;2024-03-23T04:56:38;11.68;;;7.97;;
33403;SDS011;19751;40.274;18.268;2024-03-23T04:59:04;11.73;;;8.30;;
33403;SDS011;19751;40.274;18.268;2024-03-23T05:01:32;17.38;;;9.93;;
33403;SDS011;19751;40.274;18.268;2024-03-23T05:03:58;16.83;;;8.13;;
33403;SDS011;19751;40.274;18.268;2024-03-23T05:06:24;14.07;;;8.98;;
33403;SDS011;19751;40.274;18.268;2024-03-23T05:08:50;12.93;;;7.22;;
33403;SDS011;19751;40.274;18.268;2024-03-23T05:11:16;14.68;;;7.70;;
33403;SDS011;19751;40.274;18.268;2024-03-23T05:13:42;12.13;;;7.90;;
33403;SDS011;19751;40.274;18.268;2024-03-23T05:16:07;12.38;;;7.78;;
33403;SDS011;19751;40.274;18.268;2024-03-23T05:18:33;12.07;;;8.30;;
33403;SDS011;19751;40.274;18.268;2024-03-23T05:20:59;11.88;;;7.50;;
33403;SDS011;19751;40.274;18.268;2024-03-23T05:23:25;18.90;;;8.43;;
33403;SDS011;19751;40.274;18.268;2024-03-23T05:25:51;14.68;;;9.13;;
33403;SDS011;19751;40.274;18.268;2024-03-23T05:28:17;13.07;;;7.95;;
33403;SDS011;19751;40.274;18.268;2024-03-23T05:30:43;13.57;;;8.02;;
33403;SDS011;19751;40.274;18.268;2024-03-23T05:33:09;10.68;;;6.75;;
33403;SDS011;19751;40.274;18.268;2024-03-23T05:35:34;12.60;;;7.90;;
33403;SDS011;19751;40.274;18.268;2024-03-23T05:37:59;11.25;;;7.43;;
33403;SDS011;19751;40.274;18.268;2024-03-23T05:40:26;11.23;;;7.45;;
33403;SDS011;19751;40.274;18.268;2024-03-23T05:42:51;13.35;;;7.50;;
33403;SDS011;19751;40.274;18.268;2024-03-23T05:45:23;12.38;;;8.10;;
33403;SDS011;19751;40.274;18.268;2024-03-23T05:47:49;14.63;;;8.25;;
33403;SDS011;19751;40.274;18.268;2024-03-23T05:50:15;13.95;;;7.72;;
33403;SDS011;19751;40.274;18.268;2024-03-23T05:52:41;14.88;;;7.50;;
33403;SDS011;19751;40.274;18.268;2024-03-23T05:55:08;9.77;;;7.72;;
33403;SDS011;19751;40.274;18.268;2024-03-23T05:57:34;10.93;;;6.95;;
33403;SDS011;19751;40.274;18.268;2024-03-23T05:59:59;13.38;;;7.95;;
33403;SDS011;19751;40.274;18.268;2024-03-23T06:02:25;11.43;;;7.53;;
33403;SDS011;19751;40.274;18.268;2024-03-23T06:04:50;9.18;;;7.50;;
33403;SDS011;19751;40.274;18.268;2024-03-23T06:07:16;11.93;;;7.68;;
33403;SDS011;19751;40.274;18.268;2024-03-23T06:09:41;12.50;;;8.70;;
33403;SDS011;19751;40.274;18.268;2024-03-23T06:12:07;12.40;;;8.45;;
33403;SDS011;19751;40.274;18.268;2024-03-23T06:14:33;11.02;;;7.00;;
33403;SDS011;19751;40.274;18.268;2024-03-23T06:16:59;9.93;;;6.90;;
33403;SDS011;19751;40.274;18.268;2024-03-23T06:19:26;11.82;;;6.78;;
33403;SDS011;19751;40.274;18.268;2024-03-23T06:21:53;9.60;;;6.50;;
33403;SDS011;19751;40.274;18.268;2024-03-23T06:24:19;7.75;;;6.10;;
33403;SDS011;19751;40.274;18.268;2024-03-23T06:26:47;8.70;;;7.15;;
33403;SDS011;19751;40.274;18.268;2024-03-23T06:29:13;11.05;;;8.02;;
33403;SDS011;19751;40.274;18.268;2024-03-23T06:31:38;10.73;;;7.60;;
33403;SDS011;19751;40.274;18.268;2024-03-23T06:34:04;7.43;;;6.70;;
33403;SDS011;19751;40.274;18.268;2024-03-23T06:36:29;15.63;;;8.23;;
33403;SDS011;19751;40.274;18.268;2024-03-23T06:38:58;10.05;;;7.90;;
33403;SDS011;19751;40.274;18.268;2024-03-23T06:41:24;12.45;;;8.38;;
33403;SDS011;19751;40.274;18.268;2024-03-23T06:43:50;12.88;;;8.20;;
33403;SDS011;19751;40.274;18.268;2024-03-23T06:46:15;12.65;;;9.02;;
33403;SDS011;19751;40.274;18.268;2024-03-23T06:48:41;12.88;;;8.65;;
33403;SDS011;19751;40.274;18.268;2024-03-23T06:51:06;14.60;;;7.70;;
33403;SDS011;19751;40.274;18.268;2024-03-23T06:53:32;9.77;;;7.78;;
33403;SDS011;19751;40.274;18.268;2024-03-23T06:55:57;11.88;;;8.20;;
33403;SDS011;19751;40.274;18.268;2024-03-23T06:58:23;10.13;;;7.50;;
33403;SDS011;19751;40.274;18.268;2024-03-23T07:00:50;11.32;;;8.93;;
33403;SDS011;19751;40.274;18.268;2024-03-23T07:03:18;10.75;;;8.27;;
33403;SDS011;19751;40.274;18.268;2024-03-23T07:05:45;16.20;;;9.20;;
33403;SDS011;19751;40.274;18.268;2024-03-23T07:08:11;16.00;;;8.40;;
33403;SDS011;19751;40.274;18.268;2024-03-23T07:10:40;12.15;;;8.82;;
33403;SDS011;19751;40.274;18.268;2024-03-23T07:13:05;12.13;;;8.93;;
33403;SDS011;19751;40.274;18.268;2024-03-23T07:15:30;14.95;;;9.15;;
33403;SDS011;19751;40.274;18.268;2024-03-23T07:17:56;13.00;;;8.63;;
33403;SDS011;19751;40.274;18.268;2024-03-23T07:20:22;10.63;;;8.48;;
33403;SDS011;19751;40.274;18.268;2024-03-23T07:22:47;12.82;;;7.45;;
33403;SDS011;19751;40.274;18.268;2024-03-23T07:25:13;13.68;;;8.80;;
33403;SDS011;19751;40.274;18.268;2024-03-23T07:27:38;11.85;;;8.07;;
33403;SDS011;19751;40.274;18.268;2024-03-23T07:30:04;13.55;;;7.70;;
33403;SDS011;19751;40.274;18.268;2024-03-23T07:32:30;12.95;;;8.48;;
33403;SDS011;19751;40.274;18.268;2024-03-23T07:34:55;11.45;;;6.80;;
33403;SDS011;19751;40.274;18.268;2024-03-23T07:37:21;10.95;;;7.95;;
33403;SDS011;19751;40.274;18.268;2024-03-23T07:39:46;13.40;;;8.43;;
33403;SDS011;19751;40.274;18.268;2024-03-23T07:42:12;14.10;;;7.53;;
33403;SDS011;19751;40.274;18.268;2024-03-23T07:44:38;17.75;;;10.35;;
33403;SDS011;19751;40.274;18.268;2024-03-23T07:47:03;15.38;;;9.40;;
33403;SDS011;19751;40.274;18.268;2024-03-23T07:49:29;14.40;;;8.68;;
33403;SDS011;19751;40.274;18.268;2024-03-23T07:51:54;18.45;;;10.52;;
33403;SDS011;19751;40.274;18.268;2024-03-23T07:54:20;16.42;;;8.90;;
33403;SDS011;19751;40.274;18.268;2024-03-23T07:56:45;18.15;;;10.48;;
33403;SDS011;19751;40.274;18.268;2024-03-23T07:59:11;20.00;;;10.40;;
33403;SDS011;19751;40.274;18.268;2024-03-23T08:01:36;14.95;;;10.07;;
33403;SDS011;19751;40.274;18.268;2024-03-23T08:04:02;15.23;;;7.93;;
33403;SDS011;19751;40.274;18.268;2024-03-23T08:06:28;9.35;;;6.28;;
33403;SDS011;19751;40.274;18.268;2024-03-23T08:08:56;13.90;;;5.82;;
33403;SDS011;19751;40.274;18.268;2024-03-23T08:11:25;9.25;;;5.57;;
33403;SDS011;19751;40.274;18.268;2024-03-23T08:13:55;9.18;;;5.43;;
33403;SDS011;19751;40.274;18.268;2024-03-23T08:16:21;9.13;;;5.00;;
33403;SDS011;19751;40.274;18.268;2024-03-23T08:18:47;8.05;;;4.78;;
33403;SDS011;19751;40.274;18.268;2024-03-23T08:21:13;7.10;;;4.32;;
33403;SDS011;19751;40.274;18.268;2024-03-23T08:23:39;5.97;;;3.70;;
33403;SDS011;19751;40.274;18.268;2024-03-23T08:28:31;5.53;;;4.40;;
33403;SDS011;19751;40.274;18.268;2024-03-23T08:30:57;9.57;;;4.47;;
33403;SDS011;19751;40.274;18.268;2024-03-23T08:33:26;7.05;;;4.35;;
33403;SDS011;19751;40.274;18.268;2024-03-23T08:35:54;6.68;;;4.30;;
33403;SDS011;19751;40.274;18.268;2024-03-23T08:38:21;6.20;;;4.68;;
33403;SDS011;19751;40.274;18.268;2024-03-23T08:40:47;6.53;;;4.15;;
33403;SDS011;19751;40.274;18.268;2024-03-23T08:43:13;6.80;;;4.75;;
33403;SDS011;19751;40.274;18.268;2024-03-23T08:45:38;6.47;;;3.70;;
33403;SDS011;19751;40.274;18.268;2024-03-23T08:48:04;6.80;;;4.20;;
33403;SDS011;19751;40.274;18.268;2024-03-23T08:50:29;8.05;;;4.80;;
33403;SDS011;19751;40.274;18.268;2024-03-23T08:52:55;5.28;;;3.08;;
33403;SDS011;19751;40.274;18.268;2024-03-23T08:55:20;5.68;;;4.13;;
33403;SDS011;19751;40.274;18.268;2024-03-23T08:57:46;6.95;;;3.85;;
33403;SDS011;19751;40.274;18.268;2024-03-23T09:00:11;5.55;;;4.05;;
33403;SDS011;19751;40.274;18.268;2024-03-23T09:02:37;5.40;;;3.85;;
33403;SDS011;19751;40.274;18.268;2024-03-23T09:05:03;4.75;;;3.70;;
33403;SDS011;19751;40.274;18.268;2024-03-23T09:07:32;10.35;;;3.72;;
33403;SDS011;19751;40.274;18.268;2024-03-23T09:09:57;6.80;;;3.83;;
33403;SDS011;19751;40.274;18.268;2024-03-23T09:12:23;5.05;;;3.65;;
33403;SDS011;19751;40.274;18.268;2024-03-23T09:14:49;5.03;;;3.92;;
33403;SDS011;19751;40.274;18.268;2024-03-23T09:17:15;7.93;;;3.97;;
33403;SDS011;19751;40.274;18.268;2024-03-23T09:19:41;5.82;;;4.00;;
33403;SDS011;19751;40.274;18.268;2024-03-23T09:22:06;11.05;;;5.22;;
33403;SDS011;19751;40.274;18.268;2024-03-23T09:24:32;6.20;;;3.72;;
33403;SDS011;19751;40.274;18.268;2024-03-23T09:26:57;4.70;;;3.03;;
33403;SDS011;19751;40.274;18.268;2024-03-23T09:29:23;5.90;;;3.22;;
33403;SDS011;19751;40.274;18.268;2024-03-23T09:31:48;6.75;;;3.17;;
33403;SDS011;19751;40.274;18.268;2024-03-23T09:34:14;5.68;;;2.95;;
33403;SDS011;19751;40.274;18.268;2024-03-23T09:36:40;5.60;;;3.08;;
33403;SDS011;19751;40.274;18.268;2024-03-23T09:39:06;7.93;;;3.00;;
33403;SDS011;19751;40.274;18.268;2024-03-23T09:41:34;5.55;;;3.63;;
33403;SDS011;19751;40.274;18.268;2024-03-23T09:44:00;4.18;;;2.70;;
33403;SDS011;19751;40.274;18.268;2024-03-23T09:46:26;6.55;;;3.28;;
33403;SDS011;19751;40.274;18.268;2024-03-23T09:48:53;6.50;;;3.25;;
33403;SDS011;19751;40.274;18.268;2024-03-23T09:51:21;11.57;;;4.68;;
33403;SDS011;19751;40.274;18.268;2024-03-23T09:53:46;4.97;;;2.88;;
33403;SDS011;19751;40.274;18.268;2024-03-23T09:56:12;5.43;;;3.40;;
33403;SDS011;19751;40.274;18.268;2024-03-23T09:58:37;5.40;;;2.78;;
33403;SDS011;19751;40.274;18.268;2024-03-23T10:01:03;6.18;;;3.35;;
33403;SDS011;19751;40.274;18.268;2024-03-23T10:03:29;4.90;;;3.08;;
33403;SDS011;19751;40.274;18.268;2024-03-23T10:06:02;6.55;;;3.15;;
33403;SDS011;19751;40.274;18.268;2024-03-23T10:08:29;3.92;;;2.95;;
33403;SDS011;19751;40.274;18.268;2024-03-23T10:10:55;6.45;;;3.55;;
33403;SDS011;19751;40.274;18.268;2024-03-23T10:13:24;6.25;;;3.60;;
33403;SDS011;19751;40.274;18.268;2024-03-23T10:15:54;3.78;;;3.30;;
33403;SDS011;19751;40.274;18.268;2024-03-23T10:18:23;5.57;;;3.20;;
33403;SDS011;19751;40.274;18.268;2024-03-23T10:21:06;4.32;;;3.42;;
33403;SDS011;19751;40.274;18.268;2024-03-23T10:23:32;5.20;;;3.22;;
33403;SDS011;19751;40.274;18.268;2024-03-23T10:28:51;8.45;;;3.33;;
33403;SDS011;19751;40.274;18.268;2024-03-23T10:31:17;6.60;;;3.67;;
33403;SDS011;19751;40.274;18.268;2024-03-23T10:33:46;5.03;;;3.15;;
33403;SDS011;19751;40.274;18.268;2024-03-23T10:36:12;4.85;;;2.80;;
33403;SDS011;19751;40.274;18.268;2024-03-23T10:38:39;3.67;;;3.35;;
33403;SDS011;19751;40.274;18.268;2024-03-23T10:41:06;5.28;;;2.40;;
33403;SDS011;19751;40.274;18.268;2024-03-23T10:43:34;5.18;;;3.35;;
33403;SDS011;19751;40.274;18.268;2024-03-23T10:46:01;5.28;;;3.08;;
33403;SDS011;19751;40.274;18.268;2024-03-23T10:48:26;10.45;;;3.50;;
33403;SDS011;19751;40.274;18.268;2024-03-23T10:50:52;3.97;;;3.00;;
33403;SDS011;19751;40.274;18.268;2024-03-23T10:53:18;3.30;;;3.00;;
33403;SDS011;19751;40.274;18.268;2024-03-23T10:55:48;3.88;;;2.92;;
33403;SDS011;19751;40.274;18.268;2024-03-23T10:58:14;5.07;;;2.78;;
33403;SDS011;19751;40.274;18.268;2024-03-23T11:00:42;4.35;;;3.58;;
33403;SDS011;19751;40.274;18.268;2024-03-23T11:06:05;4.82;;;3.55;;
33403;SDS011;19751;40.274;18.268;2024-03-23T11:13:49;3.90;;;3.15;;
33403;SDS011;19751;40.274;18.268;2024-03-23T11:18:46;5.72;;;3.25;;
33403;SDS011;19751;40.274;18.268;2024-03-23T11:21:18;4.53;;;3.47;;
33403;SDS011;19751;40.274;18.268;2024-03-23T11:24:15;7.00;;;3.60;;
33403;SDS011;19751;40.274;18.268;2024-03-23T11:26:41;5.15;;;3.63;;
33403;SDS011;19751;40.274;18.268;2024-03-23T11:29:10;7.10;;;4.32;;
33403;SDS011;19751;40.274;18.268;2024-03-23T11:31:36;7.18;;;4.50;;
33403;SDS011;19751;40.274;18.268;2024-03-23T11:34:15;16.00;;;10.73;;
33403;SDS011;19751;40.274;18.268;2024-03-23T11:36:41;12.07;;;9.07;;
33403;SDS011;19751;40.274;18.268;2024-03-23T11:44:18;11.77;;;5.78;;
33403;SDS011;19751;40.274;18.268;2024-03-23T11:46:45;6.60;;;5.20;;
33403;SDS011;19751;40.274;18.268;2024-03-23T11:49:44;13.07;;;5.40;;
33403;SDS011;19751;40.274;18.268;2024-03-23T11:52:06;8.70;;;5.50;;
33403;SDS011;19751;40.274;18.268;2024-03-23T11:54:32;10.32;;;4.65;;
33403;SDS011;19751;40.274;18.268;2024-03-23T11:57:04;6.63;;;4.10;;
33403;SDS011;19751;40.274;18.268;2024-03-23T11:59:34;6.43;;;3.97;;
33403;SDS011;19751;40.274;18.268;2024-03-23T12:02:08;8.55;;;5.10;;
33403;SDS011;19751;40.274;18.268;2024-03-23T12:04:35;8.93;;;4.68;;
33403;SDS011;19751;40.274;18.268;2024-03-23T12:07:15;8.50;;;4.13;;
33403;SDS011;19751;40.274;18.268;2024-03-23T12:09:44;6.22;;;4.82;;
33403;SDS011;19751;40.274;18.268;2024-03-23T12:12:14;5.88;;;4.00;;
33403;SDS011;19751;40.274;18.268;2024-03-23T12:17:13;6.88;;;4.07;;
33403;SDS011;19751;40.274;18.268;2024-03-23T12:19:39;6.40;;;4.53;;
33403;SDS011;19751;40.274;18.268;2024-03-23T12:22:06;5.25;;;3.42;;
33403;SDS011;19751;40.274;18.268;2024-03-23T12:24:33;9.23;;;3.85;;
33403;SDS011;19751;40.274;18.268;2024-03-23T12:27:00;5.85;;;3.92;;
33403;SDS011;19751;40.274;18.268;2024-03-23T12:29:33;7.28;;;4.05;;
33403;SDS011;19751;40.274;18.268;2024-03-23T12:32:00;6.05;;;4.53;;
33403;SDS011;19751;40.274;18.268;2024-03-23T12:34:26;5.72;;;4.25;;
33403;SDS011;19751;40.274;18.268;2024-03-23T12:36:52;6.82;;;3.92;;
33403;SDS011;19751;40.274;18.268;2024-03-23T12:39:18;6.13;;;3.53;;
33403;SDS011;19751;40.274;18.268;2024-03-23T12:41:45;5.38;;;3.60;;
33403;SDS011;19751;40.274;18.268;2024-03-23T12:44:11;8.38;;;5.28;;
33403;SDS011;19751;40.274;18.268;2024-03-23T12:46:37;5.53;;;3.40;;
33403;SDS011;19751;40.274;18.268;2024-03-23T12:49:03;5.10;;;3.90;;
33403;SDS011;19751;40.274;18.268;2024-03-23T12:51:28;5.20;;;3.90;;
33403;SDS011;19751;40.274;18.268;2024-03-23T12:53:54;6.30;;;3.60;;
33403;SDS011;19751;40.274;18.268;2024-03-23T12:56:19;9.07;;;4.47;;
33403;SDS011;19751;40.274;18.268;2024-03-23T12:58:45;6.30;;;4.22;;
33403;SDS011;19751;40.274;18.268;2024-03-23T13:01:13;5.90;;;4.10;;
33403;SDS011;19751;40.274;18.268;2024-03-23T13:03:39;11.75;;;6.03;;
33403;SDS011;19751;40.274;18.268;2024-03-23T13:06:06;7.93;;;6.35;;
33403;SDS011;19751;40.274;18.268;2024-03-23T13:08:32;5.75;;;4.88;;
33403;SDS011;19751;40.274;18.268;2024-03-23T13:10:58;8.05;;;5.40;;
33403;SDS011;19751;40.274;18.268;2024-03-23T13:13:23;6.50;;;3.45;;
33403;SDS011;19751;40.274;18.268;2024-03-23T13:15:49;5.70;;;3.67;;
33403;SDS011;19751;40.274;18.268;2024-03-23T13:18:15;5.60;;;3.55;;
33403;SDS011;19751;40.274;18.268;2024-03-23T13:20:41;6.38;;;3.80;;
33403;SDS011;19751;40.274;18.268;2024-03-23T13:23:06;5.43;;;4.13;;
33403;SDS011;19751;40.274;18.268;2024-03-23T13:25:32;6.13;;;3.72;;
33403;SDS011;19751;40.274;18.268;2024-03-23T13:27:58;3.95;;;2.88;;
33403;SDS011;19751;40.274;18.268;2024-03-23T13:30:24;8.90;;;4.00;;
33403;SDS011;19751;40.274;18.268;2024-03-23T13:32:49;4.53;;;3.45;;
33403;SDS011;19751;40.274;18.268;2024-03-23T13:35:15;4.28;;;3.10;;
33403;SDS011;19751;40.274;18.268;2024-03-23T13:37:41;5.82;;;3.65;;
33403;SDS011;19751;40.274;18.268;2024-03-23T13:40:07;7.28;;;3.25;;
33403;SDS011;19751;40.274;18.268;2024-03-23T13:42:33;3.70;;;3.25;;
33403;SDS011;19751;40.274;18.268;2024-03-23T13:44:58;8.02;;;3.33;;
33403;SDS011;19751;40.274;18.268;2024-03-23T13:47:24;4.13;;;3.13;;
33403;SDS011;19751;40.274;18.268;2024-03-23T13:49:49;4.90;;;3.63;;
33403;SDS011;19751;40.274;18.268;2024-03-23T13:52:15;5.53;;;4.13;;
33403;SDS011;19751;40.274;18.268;2024-03-23T13:54:41;6.72;;;3.47;;
33403;SDS011;19751;40.274;18.268;2024-03-23T13:57:11;4.32;;;2.75;;
33403;SDS011;19751;40.274;18.268;2024-03-23T13:59:36;6.70;;;3.13;;
33403;SDS011;19751;40.274;18.268;2024-03-23T14:02:02;3.50;;;3.05;;
33403;SDS011;19751;40.274;18.268;2024-03-23T14:04:27;3.90;;;3.35;;
33403;SDS011;19751;40.274;18.268;2024-03-23T14:06:53;4.22;;;3.22;;
33403;SDS011;19751;40.274;18.268;2024-03-23T14:09:19;4.53;;;2.50;;
33403;SDS011;19751;40.274;18.268;2024-03-23T14:11:47;6.13;;;2.90;;
33403;SDS011;19751;40.274;18.268;2024-03-23T14:14:13;4.05;;;2.67;;
33403;SDS011;19751;40.274;18.268;2024-03-23T14:16:41;3.90;;;2.28;;
33403;SDS011;19751;40.274;18.268;2024-03-23T14:19:07;3.58;;;2.45;;
33403;SDS011;19751;40.274;18.268;2024-03-23T14:21:33;4.75;;;3.63;;
33403;SDS011;19751;40.274;18.268;2024-03-23T14:24:01;5.03;;;3.13;;
33403;SDS011;19751;40.274;18.268;2024-03-23T14:26:27;4.38;;;3.15;;
33403;SDS011;19751;40.274;18.268;2024-03-23T14:28:53;4.93;;;3.13;;
33403;SDS011;19751;40.274;18.268;2024-03-23T14:31:19;6.15;;;3.20;;
33403;SDS011;19751;40.274;18.268;2024-03-23T14:33:44;12.90;;;8.85;;
33403;SDS011;19751;40.274;18.268;2024-03-23T14:36:13;23.15;;;15.68;;
33403;SDS011;19751;40.274;18.268;2024-03-23T14:38:39;14.52;;;11.02;;
33403;SDS011;19751;40.274;18.268;2024-03-23T14:41:05;21.35;;;13.80;;
33403;SDS011;19751;40.274;18.268;2024-03-23T14:43:31;6.93;;;4.55;;
33403;SDS011;19751;40.274;18.268;2024-03-23T14:46:06;10.10;;;3.50;;
33403;SDS011;19751;40.274;18.268;2024-03-23T14:48:39;7.60;;;3.33;;
33403;SDS011;19751;40.274;18.268;2024-03-23T14:51:06;4.13;;;3.72;;
33403;SDS011;19751;40.274;18.268;2024-03-23T14:53:35;6.50;;;2.67;;
33403;SDS011;19751;40.274;18.268;2024-03-23T14:56:04;6.45;;;3.28;;
33403;SDS011;19751;40.274;18.268;2024-03-23T14:58:30;4.13;;;3.00;;
33403;SDS011;19751;40.274;18.268;2024-03-23T15:01:05;4.00;;;3.15;;
33403;SDS011;19751;40.274;18.268;2024-03-23T15:03:34;3.88;;;3.47;;
33403;SDS011;19751;40.274;18.268;2024-03-23T15:06:04;6.13;;;5.38;;
33403;SDS011;19751;40.274;18.268;2024-03-23T15:08:30;4.22;;;3.00;;
33403;SDS011;19751;40.274;18.268;2024-03-23T15:10:58;9.07;;;3.67;;
33403;SDS011;19751;40.274;18.268;2024-03-23T15:13:25;6.25;;;3.13;;
33403;SDS011;19751;40.274;18.268;2024-03-23T15:15:51;3.75;;;2.78;;
33403;SDS011;19751;40.274;18.268;2024-03-23T15:18:17;5.43;;;4.00;;
33403;SDS011;19751;40.274;18.268;2024-03-23T15:20:57;2.80;;;2.42;;
33403;SDS011;19751;40.274;18.268;2024-03-23T15:23:27;4.78;;;3.08;;
33403;SDS011;19751;40.274;18.268;2024-03-23T15:26:00;4.72;;;3.17;;
33403;SDS011;19751;40.274;18.268;2024-03-23T15:28:27;3.20;;;2.90;;
33403;SDS011;19751;40.274;18.268;2024-03-23T15:31:06;5.43;;;3.10;;
33403;SDS011;19751;40.274;18.268;2024-03-23T15:33:32;4.47;;;3.10;;
33403;SDS011;19751;40.274;18.268;2024-03-23T15:36:01;6.25;;;3.85;;
33403;SDS011;19751;40.274;18.268;2024-03-23T15:38:33;5.95;;;4.38;;